Time;durP1;ratioP1;P1;durP2;ratioP2;P2;SDS_P1;SDS_P2;PMS_P1;PMS_P2;Temp;Humidity;BMP_temperature;BMP_pressure;BME280_temperature;BME280_humidity;BME280_pressure;Samples;Min_cycle;Max_cycle;Signal;HPM_P1;HPM_P2
2022/02/26 00:01:29;;;;;;;9.27;2.10;;;;;;;;;;5060143;28;20072;-55
2022/02/26 00:03:55;;;;;;;10.60;1.90;;;;;;;;;;5064247;28;20144;-56
2022/02/26 00:06:22;;;;;;;9.98;1.90;;;;;;;;;;5066236;28;20267;-61
2022/02/26 00:08:49;;;;;;;13.20;2.42;;;;;;;;;;5062027;28;20076;-58
2022/02/26 00:11:17;;;;;;;16.17;2.60;;;;;;;;;;5067624;28;20048;-62
2022/02/26 00:13:43;;;;;;;8.60;2.07;;;;;;;;;;5060367;28;20110;-59
2022/02/26 00:16:11;;;;;;;13.73;2.13;;;;;;;;;;5065901;28;20052;-58
2022/02/26 00:18:38;;;;;;;8.73;1.80;;;;;;;;;;5059533;28;20167;-59
2022/02/26 00:21:04;;;;;;;12.95;2.03;;;;;;;;;;5066325;28;20049;-62
2022/02/26 00:23:31;;;;;;;9.05;2.25;;;;;;;;;;5059988;28;20056;-59
2022/02/26 00:25:57;;;;;;;11.50;2.20;;;;;;;;;;5066120;28;20056;-61
2022/02/26 00:28:26;;;;;;;9.90;2.28;;;;;;;;;;5060164;28;20049;-56
2022/02/26 00:30:52;;;;;;;;;;;;;;;;;;5066524;28;20057;-56
2022/02/26 00:33:19;;;;;;;11.07;1.90;;;;;;;;;;5059864;28;20291;-60
2022/02/26 00:35:45;;;;;;;7.78;1.75;;;;;;;;;;5066284;28;20048;-56
2022/02/26 00:38:12;;;;;;;8.32;2.50;;;;;;;;;;5058796;28;20098;-54
2022/02/26 00:40:38;;;;;;;7.20;1.83;;;;;;;;;;5068169;28;20478;-59
2022/02/26 00:43:05;;;;;;;10.00;2.15;;;;;;;;;;5062122;28;20143;-58
2022/02/26 00:45:33;;;;;;;9.73;2.47;;;;;;;;;;5067436;28;20114;-61
2022/02/26 00:48:01;;;;;;;12.05;2.90;;;;;;;;;;5066010;28;20078;-57
2022/02/26 00:50:27;;;;;;;8.10;2.60;;;;;;;;;;5062441;28;20505;-59
2022/02/26 00:52:54;;;;;;;11.20;2.40;;;;;;;;;;5054394;28;20057;-62
2022/02/26 00:55:22;;;;;;;8.15;2.25;;;;;;;;;;5040949;28;20148;-55
2022/02/26 00:57:49;;;;;;;10.20;2.50;;;;;;;;;;5045352;28;20095;-54
2022/02/26 01:00:16;;;;;;;11.20;2.30;;;;;;;;;;5054890;28;20060;-52
2022/02/26 01:02:45;;;;;;;10.50;2.25;;;;;;;;;;5065060;28;20052;-56
2022/02/26 01:05:12;;;;;;;9.38;2.33;;;;;;;;;;5049157;28;20182;-60
2022/02/26 01:07:39;;;;;;;13.95;4.28;;;;;;;;;;5045315;28;20055;-54
2022/02/26 01:10:06;;;;;;;15.95;3.78;;;;;;;;;;5049438;28;20040;-56
2022/02/26 01:12:33;;;;;;;11.63;2.95;;;;;;;;;;5066011;28;20126;-54
2022/02/26 01:14:59;;;;;;;10.07;2.83;;;;;;;;;;5059721;28;20129;-60
2022/02/26 01:17:28;;;;;;;10.35;2.60;;;;;;;;;;5065085;28;20052;-58
2022/02/26 01:19:56;;;;;;;11.98;2.17;;;;;;;;;;5059438;28;20041;-58
2022/02/26 01:22:22;;;;;;;11.47;2.80;;;;;;;;;;5065319;28;20050;-57
2022/02/26 01:24:49;;;;;;;11.73;2.28;;;;;;;;;;5059601;28;20322;-57
2022/02/26 01:27:18;;;;;;;10.98;2.08;;;;;;;;;;5065127;28;20061;-56
2022/02/26 01:29:44;;;;;;;;;;;;;;;;;;5050497;28;20056;-56
2022/02/26 01:32:11;;;;;;;6.35;1.55;;;;;;;;;;5045428;28;19936;-58
2022/02/26 01:34:37;;;;;;;13.85;2.53;;;;;;;;;;5045163;28;20083;-57
2022/02/26 01:37:06;;;;;;;7.90;2.05;;;;;;;;;;5058668;28;20110;-59
2022/02/26 01:39:32;;;;;;;11.20;1.83;;;;;;;;;;5066896;28;20059;-55
2022/02/26 01:41:59;;;;;;;9.73;2.30;;;;;;;;;;5060298;28;20167;-54
2022/02/26 01:44:26;;;;;;;11.15;3.10;;;;;;;;;;5065040;28;20064;-55
2022/02/26 01:46:52;;;;;;;12.20;2.90;;;;;;;;;;5059042;28;20053;-56
2022/02/26 01:49:19;;;;;;;9.60;2.95;;;;;;;;;;5066944;28;20182;-55
2022/02/26 01:51:45;;;;;;;15.50;2.67;;;;;;;;;;5060858;28;20052;-53
2022/02/26 01:54:13;;;;;;;8.43;2.53;;;;;;;;;;5049649;28;20087;-56
2022/02/26 01:56:40;;;;;;;8.50;2.50;;;;;;;;;;5051926;28;20063;-58
2022/02/26 01:59:07;;;;;;;10.75;2.30;;;;;;;;;;5068819;28;20470;-58
2022/02/26 02:01:33;;;;;;;8.55;2.50;;;;;;;;;;5059886;28;20110;-57
2022/02/26 02:04:00;;;;;;;8.07;2.67;;;;;;;;;;5069500;28;20088;-58
2022/02/26 02:06:29;;;;;;;10.05;3.25;;;;;;;;;;5063735;28;20171;-62
2022/02/26 02:08:56;;;;;;;10.35;2.38;;;;;;;;;;5070840;28;20044;-61
2022/02/26 02:11:24;;;;;;;10.02;2.58;;;;;;;;;;5066302;28;20163;-59
2022/02/26 02:13:50;;;;;;;12.48;2.78;;;;;;;;;;5049148;28;20077;-58
2022/02/26 02:16:18;;;;;;;11.98;2.40;;;;;;;;;;5048677;28;20060;-58
2022/02/26 02:18:45;;;;;;;6.80;2.28;;;;;;;;;;5061714;28;20056;-59
2022/02/26 02:21:11;;;;;;;10.55;2.53;;;;;;;;;;5068468;28;20391;-58
2022/02/26 02:23:40;;;;;;;6.70;2.25;;;;;;;;;;5062529;28;20072;-58
2022/02/26 02:26:07;;;;;;;12.65;2.47;;;;;;;;;;5067941;28;20060;-61
2022/02/26 02:28:33;;;;;;;8.70;2.50;;;;;;;;;;5062574;28;20121;-59
2022/02/26 02:31:00;;;;;;;7.90;2.20;;;;;;;;;;5067901;28;20060;-60
2022/02/26 02:33:26;;;;;;;11.10;2.35;;;;;;;;;;5062788;28;20049;-61
2022/02/26 02:35:53;;;;;;;8.98;2.50;;;;;;;;;;5057400;28;20056;-60
2022/02/26 02:38:20;;;;;;;7.95;2.47;;;;;;;;;;5061840;28;20048;-59
2022/02/26 02:40:51;;;;;;;8.20;2.30;;;;;;;;;;5059123;28;20144;-62
2022/02/26 02:43:17;;;;;;;10.00;2.25;;;;;;;;;;5062027;28;20135;-61
2022/02/26 02:45:44;;;;;;;9.35;2.65;;;;;;;;;;5057476;28;20141;-59
2022/02/26 02:48:11;;;;;;;9.10;2.25;;;;;;;;;;5061435;28;20056;-60
2022/02/26 02:50:38;;;;;;;14.50;2.40;;;;;;;;;;5067564;28;20121;-62
2022/02/26 02:53:04;;;;;;;7.20;2.05;;;;;;;;;;5061823;28;20083;-61
2022/02/26 02:55:31;;;;;;;9.63;2.10;;;;;;;;;;5061189;28;20044;-59
2022/02/26 02:57:59;;;;;;;6.78;1.98;;;;;;;;;;5047786;28;20056;-61
2022/02/26 03:00:26;;;;;;;8.75;2.13;;;;;;;;;;5059374;28;20058;-61
2022/02/26 03:02:53;;;;;;;7.78;2.03;;;;;;;;;;5067982;28;20076;-60
2022/02/26 03:05:21;;;;;;;7.55;2.15;;;;;;;;;;5062590;28;20120;-60
2022/02/26 03:07:47;;;;;;;8.73;1.92;;;;;;;;;;5068119;28;20048;-54
2022/02/26 03:10:14;;;;;;;16.60;2.25;;;;;;;;;;5062426;28;20044;-59
2022/02/26 03:12:40;;;;;;;9.02;2.15;;;;;;;;;;5067494;28;20090;-59
2022/02/26 03:15:09;;;;;;;11.77;1.90;;;;;;;;;;5061736;28;20575;-60
2022/02/26 03:17:36;;;;;;;11.57;2.13;;;;;;;;;;5067106;28;20079;-59
2022/02/26 03:20:02;;;;;;;10.15;2.60;;;;;;;;;;5062545;28;20051;-60
2022/02/26 03:22:29;;;;;;;9.18;2.05;;;;;;;;;;5067412;28;20049;-58
2022/02/26 03:24:56;;;;;;;13.82;2.10;;;;;;;;;;5062227;28;20047;-56
2022/02/26 03:27:23;;;;;;;11.38;2.20;;;;;;;;;;5066853;28;20160;-62
2022/02/26 03:29:49;;;;;;;5.63;1.73;;;;;;;;;;5061150;28;20055;-59
2022/02/26 03:32:17;;;;;;;10.40;2.25;;;;;;;;;;5067496;28;20060;-60
2022/02/26 03:34:44;;;;;;;7.60;2.10;;;;;;;;;;5061878;28;20101;-60
2022/02/26 03:37:12;;;;;;;10.05;1.73;;;;;;;;;;5070058;28;20295;-61
2022/02/26 03:39:39;;;;;;;10.55;2.08;;;;;;;;;;5070133;28;20088;-62
2022/02/26 03:42:06;;;;;;;5.18;2.03;;;;;;;;;;5063285;28;20403;-59
2022/02/26 03:44:33;;;;;;;7.03;2.03;;;;;;;;;;5067662;28;20052;-59
2022/02/26 03:47:00;;;;;;;5.30;1.92;;;;;;;;;;5061055;28;20076;-58
2022/02/26 03:49:28;;;;;;;7.35;1.90;;;;;;;;;;5067043;28;20079;-61
2022/02/26 03:51:55;;;;;;;4.72;1.83;;;;;;;;;;5061287;28;20052;-60
2022/02/26 03:54:22;;;;;;;4.90;1.75;;;;;;;;;;5065714;28;20059;-59
2022/02/26 03:56:49;;;;;;;6.07;1.70;;;;;;;;;;5059792;28;20044;-59
2022/02/26 03:59:16;;;;;;;5.88;2.00;;;;;;;;;;5066507;28;20113;-61
2022/02/26 04:01:42;;;;;;;4.95;1.73;;;;;;;;;;5061201;28;20140;-60
2022/02/26 04:04:09;;;;;;;4.80;1.80;;;;;;;;;;5066319;28;20040;-58
2022/02/26 04:06:37;;;;;;;8.35;1.95;;;;;;;;;;5050338;28;20052;-58
2022/02/26 04:09:04;;;;;;;5.38;2.13;;;;;;;;;;5062588;28;20049;-58
2022/02/26 04:11:31;;;;;;;5.13;1.95;;;;;;;;;;5060450;28;20107;-60
2022/02/26 04:13:57;;;;;;;6.90;1.98;;;;;;;;;;5065828;28;20052;-62
2022/02/26 04:16:24;;;;;;;4.97;1.90;;;;;;;;;;5059252;28;20048;-58
2022/02/26 04:18:50;;;;;;;4.93;1.80;;;;;;;;;;5066076;28;20064;-55
2022/02/26 04:21:17;;;;;;;7.65;2.30;;;;;;;;;;5066055;28;20071;-55
2022/02/26 04:23:45;;;;;;;3.92;1.88;;;;;;;;;;5062154;28;20094;-58
2022/02/26 04:26:13;;;;;;;5.20;2.00;;;;;;;;;;5065904;28;20106;-58
2022/02/26 04:28:39;;;;;;;6.65;2.03;;;;;;;;;;5061117;28;20061;-58
2022/02/26 04:31:06;;;;;;;8.65;2.00;;;;;;;;;;5066515;28;20129;-60
2022/02/26 04:33:32;;;;;;;5.35;2.03;;;;;;;;;;5061202;28;20060;-59
2022/02/26 04:36:00;;;;;;;6.95;1.98;;;;;;;;;;5066780;28;20139;-59
2022/02/26 04:38:29;;;;;;;6.35;2.25;;;;;;;;;;5060399;28;20053;-59
2022/02/26 04:40:58;;;;;;;5.38;2.10;;;;;;;;;;5066793;28;20048;-57
2022/02/26 04:43:25;;;;;;;8.55;2.20;;;;;;;;;;5059090;28;20060;-58
2022/02/26 04:45:51;;;;;;;6.78;2.20;;;;;;;;;;5066044;28;20087;-60
2022/02/26 04:48:18;;;;;;;8.00;2.08;;;;;;;;;;5060687;28;20063;-62
2022/02/26 04:50:45;;;;;;;7.70;2.15;;;;;;;;;;5066613;28;20053;-59
2022/02/26 04:53:12;;;;;;;8.00;2.03;;;;;;;;;;5052504;28;20147;-60
2022/02/26 04:55:38;;;;;;;3.13;1.45;;;;;;;;;;5066400;28;20075;-59
2022/02/26 04:58:06;;;;;;;6.95;2.13;;;;;;;;;;5060472;28;20068;-61
2022/02/26 05:00:33;;;;;;;8.40;2.67;;;;;;;;;;5066931;28;20064;-61
2022/02/26 05:02:59;;;;;;;12.07;2.47;;;;;;;;;;5062284;28;20429;-59
2022/02/26 05:05:26;;;;;;;8.43;2.30;;;;;;;;;;5065136;28;20079;-63
2022/02/26 05:07:54;;;;;;;7.97;2.60;;;;;;;;;;5047955;28;20140;-63
2022/02/26 05:10:21;;;;;;;8.15;2.10;;;;;;;;;;5057727;28;20076;-62
2022/02/26 05:12:47;;;;;;;12.98;2.33;;;;;;;;;;5065985;28;20041;-61
2022/02/26 05:15:15;;;;;;;8.48;2.80;;;;;;;;;;5060149;28;20141;-59
2022/02/26 05:17:42;;;;;;;12.43;2.40;;;;;;;;;;5065347;28;20052;-59
2022/02/26 05:20:10;;;;;;;10.10;2.30;;;;;;;;;;5060128;28;20456;-59
2022/02/26 05:22:36;;;;;;;11.48;2.25;;;;;;;;;;5065551;28;20127;-60
2022/02/26 05:25:03;;;;;;;12.63;2.70;;;;;;;;;;5063423;28;20092;-59
2022/02/26 05:27:30;;;;;;;12.15;2.40;;;;;;;;;;5069253;28;20052;-60
2022/02/26 05:29:56;;;;;;;11.30;2.38;;;;;;;;;;5063865;28;20125;-59
2022/02/26 05:32:24;;;;;;;7.00;2.45;;;;;;;;;;5069470;28;20072;-60
2022/02/26 05:34:51;;;;;;;9.40;2.05;;;;;;;;;;5063740;28;20044;-59
2022/02/26 05:37:18;;;;;;;8.60;2.47;;;;;;;;;;5068952;28;20102;-56
2022/02/26 05:39:44;;;;;;;5.80;1.73;;;;;;;;;;5063306;28;20099;-60
2022/02/26 05:42:11;;;;;;;12.00;2.60;;;;;;;;;;5068985;28;20075;-59
2022/02/26 05:44:38;;;;;;;6.85;2.03;;;;;;;;;;5064709;28;20101;-57
2022/02/26 05:47:05;;;;;;;9.25;2.40;;;;;;;;;;5067948;28;20106;-63
2022/02/26 05:49:33;;;;;;;9.02;2.17;;;;;;;;;;5068781;28;20061;-61
2022/02/26 05:51:59;;;;;;;11.13;2.33;;;;;;;;;;5045515;28;20048;-61
2022/02/26 05:54:26;;;;;;;18.17;2.78;;;;;;;;;;5047919;28;20445;-57
2022/02/26 05:56:53;;;;;;;15.05;2.65;;;;;;;;;;5059008;28;20079;-59
2022/02/26 05:59:19;;;;;;;6.55;2.15;;;;;;;;;;5069333;28;20060;-59
2022/02/26 06:01:46;;;;;;;11.23;2.33;;;;;;;;;;5063749;28;20079;-60
2022/02/26 06:04:12;;;;;;;10.45;2.60;;;;;;;;;;5069754;28;20056;-61
2022/02/26 06:06:40;;;;;;;9.05;3.00;;;;;;;;;;5063194;28;20048;-59
2022/02/26 06:09:07;;;;;;;9.55;2.17;;;;;;;;;;5068708;28;20057;-61
2022/02/26 06:11:33;;;;;;;12.38;2.97;;;;;;;;;;5062757;28;20048;-60
2022/02/26 06:14:00;;;;;;;8.52;2.53;;;;;;;;;;5068462;28;20052;-60
2022/02/26 06:16:27;;;;;;;8.85;2.78;;;;;;;;;;5064591;28;20136;-62
2022/02/26 06:18:54;;;;;;;9.48;3.10;;;;;;;;;;5069194;28;20056;-61
2022/02/26 06:21:20;;;;;;;8.70;3.80;;;;;;;;;;5063254;28;20074;-60
2022/02/26 06:23:48;;;;;;;9.07;3.10;;;;;;;;;;5069123;28;20041;-63
2022/02/26 06:26:15;;;;;;;10.63;3.03;;;;;;;;;;5064648;28;20564;-60
2022/02/26 06:28:41;;;;;;;12.35;3.08;;;;;;;;;;5067669;28;20057;-60
2022/02/26 06:31:07;;;;;;;10.30;3.00;;;;;;;;;;5069397;28;20056;-61
2022/02/26 06:33:34;;;;;;;7.38;2.58;;;;;;;;;;5064871;28;20087;-63
2022/02/26 06:36:02;;;;;;;8.65;2.80;;;;;;;;;;5069717;28;20052;-62
2022/02/26 06:38:29;;;;;;;7.85;3.03;;;;;;;;;;5062898;28;20044;-59
2022/02/26 06:40:57;;;;;;;8.95;3.25;;;;;;;;;;5068891;28;20119;-59
2022/02/26 06:43:24;;;;;;;11.13;3.40;;;;;;;;;;5062274;28;20067;-59
2022/02/26 06:45:50;;;;;;;7.97;3.40;;;;;;;;;;5068382;28;20051;-57
2022/02/26 06:48:17;;;;;;;7.18;2.72;;;;;;;;;;5060802;28;20052;-58
2022/02/26 06:50:43;;;;;;;8.18;3.85;;;;;;;;;;5070788;28;20079;-57
2022/02/26 06:53:10;;;;;;;9.73;3.13;;;;;;;;;;5061519;28;20049;-57
2022/02/26 06:55:36;;;;;;;9.68;3.63;;;;;;;;;;5068907;28;20088;-59
2022/02/26 06:58:04;;;;;;;9.15;3.15;;;;;;;;;;5060659;28;20098;-55
2022/02/26 07:00:31;;;;;;;8.13;2.83;;;;;;;;;;5070351;28;20144;-58
2022/02/26 07:02:57;;;;;;;6.93;3.15;;;;;;;;;;5063448;28;20072;-59
2022/02/26 07:05:24;;;;;;;7.10;3.25;;;;;;;;;;5069173;28;20561;-55
2022/02/26 07:07:51;;;;;;;11.27;3.33;;;;;;;;;;5065029;28;20229;-57
2022/02/26 07:10:18;;;;;;;9.23;3.45;;;;;;;;;;5065603;28;20053;-60
2022/02/26 07:12:45;;;;;;;8.93;3.50;;;;;;;;;;5069210;28;20045;-62
2022/02/26 07:15:15;;;;;;;5.78;3.00;;;;;;;;;;5062628;28;20108;-62
2022/02/26 07:17:42;;;;;;;7.53;3.20;;;;;;;;;;5069533;28;20045;-57
2022/02/26 07:20:09;;;;;;;8.13;3.70;;;;;;;;;;5062336;28;20052;-60
2022/02/26 07:22:36;;;;;;;9.73;3.65;;;;;;;;;;5066683;28;20052;-57
2022/02/26 07:25:02;;;;;;;14.15;3.45;;;;;;;;;;5063828;28;20067;-61
2022/02/26 07:27:29;;;;;;;13.30;3.90;;;;;;;;;;5070617;28;20048;-61
2022/02/26 07:29:55;;;;;;;7.47;3.28;;;;;;;;;;5064315;28;20064;-60
2022/02/26 07:32:23;;;;;;;9.27;3.40;;;;;;;;;;5060388;28;20129;-61
2022/02/26 07:34:50;;;;;;;7.72;3.75;;;;;;;;;;5063066;28;20056;-59
2022/02/26 07:37:16;;;;;;;9.68;3.35;;;;;;;;;;5068593;28;20084;-63
2022/02/26 07:39:43;;;;;;;10.80;4.13;;;;;;;;;;5062612;28;20567;-61
2022/02/26 07:42:09;;;;;;;13.20;4.93;;;;;;;;;;5069857;28;20112;-57
2022/02/26 07:44:36;;;;;;;11.32;4.75;;;;;;;;;;5061887;28;20071;-59
2022/02/26 07:47:03;;;;;;;9.68;3.55;;;;;;;;;;5067016;28;20056;-59
2022/02/26 07:49:31;;;;;;;8.25;3.60;;;;;;;;;;5066220;28;20056;-58
2022/02/26 07:51:57;;;;;;;6.22;3.10;;;;;;;;;;5068606;28;20486;-64
2022/02/26 07:54:24;;;;;;;9.18;4.10;;;;;;;;;;5069851;28;20114;-61
2022/02/26 07:56:51;;;;;;;10.07;4.38;;;;;;;;;;5064240;28;20076;-57
2022/02/26 07:59:17;;;;;;;15.07;4.20;;;;;;;;;;5069484;28;20052;-63
2022/02/26 08:01:44;;;;;;;8.75;3.22;;;;;;;;;;5066195;28;20060;-64
2022/02/26 08:04:10;;;;;;;8.70;3.67;;;;;;;;;;5068872;28;20048;-67
2022/02/26 08:06:38;;;;;;;8.27;3.70;;;;;;;;;;5061121;28;20053;-61
2022/02/26 08:09:05;;;;;;;8.55;3.50;;;;;;;;;;5065223;28;20056;-60
2022/02/26 08:11:32;;;;;;;8.50;3.67;;;;;;;;;;5063383;28;20055;-61
2022/02/26 08:13:59;;;;;;;10.73;3.90;;;;;;;;;;5069083;28;20044;-61
2022/02/26 08:16:26;;;;;;;10.63;4.65;;;;;;;;;;5063942;28;20061;-64
2022/02/26 08:18:53;;;;;;;11.13;4.50;;;;;;;;;;5067022;28;20115;-57
2022/02/26 08:21:20;;;;;;;9.90;3.97;;;;;;;;;;5061223;28;20055;-59
2022/02/26 08:23:48;;;;;;;10.48;3.78;;;;;;;;;;5068062;28;20143;-57
2022/02/26 08:26:16;;;;;;;9.73;4.07;;;;;;;;;;5062251;28;20048;-60
2022/02/26 08:28:42;;;;;;;8.52;3.90;;;;;;;;;;5068044;28;20052;-58
2022/02/26 08:31:09;;;;;;;9.27;4.15;;;;;;;;;;5059676;28;20060;-54
2022/02/26 08:33:36;;;;;;;10.75;4.70;;;;;;;;;;5068530;28;20172;-60
2022/02/26 08:36:02;;;;;;;9.60;4.05;;;;;;;;;;5066367;28;20111;-55
2022/02/26 08:38:29;;;;;;;9.30;4.35;;;;;;;;;;5061840;28;20076;-59
2022/02/26 08:40:57;;;;;;;8.20;3.50;;;;;;;;;;5068341;28;20048;-59
2022/02/26 08:43:24;;;;;;;10.48;4.63;;;;;;;;;;5061469;28;20115;-61
2022/02/26 08:45:50;;;;;;;11.80;5.28;;;;;;;;;;5065354;28;20045;-55
2022/02/26 08:48:18;;;;;;;9.85;4.47;;;;;;;;;;5058657;28;20065;-59
2022/02/26 08:50:44;;;;;;;6.50;3.45;;;;;;;;;;5066581;28;20066;-58
2022/02/26 08:53:11;;;;;;;7.55;3.63;;;;;;;;;;5062091;28;20078;-59
2022/02/26 08:55:38;;;;;;;11.43;4.55;;;;;;;;;;5068415;28;20498;-58
2022/02/26 08:58:06;;;;;;;9.07;3.80;;;;;;;;;;5061330;28;20129;-59
2022/02/26 09:00:33;;;;;;;6.85;3.13;;;;;;;;;;5070643;28;20049;-58
2022/02/26 09:02:59;;;;;;;9.75;4.03;;;;;;;;;;5063215;28;20048;-61
2022/02/26 09:05:26;;;;;;;12.45;4.70;;;;;;;;;;5071445;28;20113;-59
2022/02/26 09:07:53;;;;;;;10.52;5.05;;;;;;;;;;5063663;28;20040;-60
2022/02/26 09:10:19;;;;;;;9.10;3.80;;;;;;;;;;5067787;28;20143;-59
2022/02/26 09:12:46;;;;;;;9.52;4.78;;;;;;;;;;5059584;28;20141;-57
2022/02/26 09:15:15;;;;;;;11.27;4.18;;;;;;;;;;5063216;28;20055;-60
2022/02/26 09:17:43;;;;;;;12.23;4.85;;;;;;;;;;5071025;28;20062;-62
2022/02/26 09:20:12;;;;;;;11.20;4.43;;;;;;;;;;5064476;28;20052;-60
2022/02/26 09:22:39;;;;;;;6.57;3.10;;;;;;;;;;5069726;28;20072;-56
2022/02/26 09:25:07;;;;;;;5.30;2.58;;;;;;;;;;5064674;28;20048;-60
2022/02/26 09:27:33;;;;;;;12.00;4.05;;;;;;;;;;5072787;28;20052;-58
2022/02/26 09:30:00;;;;;;;12.77;4.30;;;;;;;;;;5063180;28;20058;-58
2022/02/26 09:32:31;;;;;;;12.88;4.32;;;;;;;;;;5072654;28;20048;-57
2022/02/26 09:34:57;;;;;;;13.20;4.70;;;;;;;;;;5063039;28;20045;-61
2022/02/26 09:37:26;;;;;;;8.90;4.45;;;;;;;;;;5060903;28;20747;-63
2022/02/26 09:39:54;;;;;;;10.50;5.03;;;;;;;;;;5065186;28;20063;-61
2022/02/26 09:42:21;;;;;;;10.45;5.07;;;;;;;;;;5070569;28;20049;-59
2022/02/26 09:44:48;;;;;;;9.30;4.43;;;;;;;;;;5063065;28;20044;-57
2022/02/26 09:47:16;;;;;;;11.73;4.95;;;;;;;;;;5070315;28;20053;-59
2022/02/26 09:49:46;;;;;;;16.80;5.60;;;;;;;;;;5063942;28;20048;-58
2022/02/26 09:52:13;;;;;;;13.52;4.60;;;;;;;;;;5070553;28;20193;-56
2022/02/26 09:54:39;;;;;;;11.20;5.55;;;;;;;;;;5065796;28;20064;-57
2022/02/26 09:57:06;;;;;;;16.98;5.47;;;;;;;;;;5071422;28;20048;-57
2022/02/26 09:59:32;;;;;;;9.38;4.20;;;;;;;;;;5066744;28;20047;-57
2022/02/26 10:02:00;;;;;;;10.43;4.55;;;;;;;;;;5067257;28;20058;-58
2022/02/26 10:04:27;;;;;;;8.98;3.05;;;;;;;;;;5071659;28;20083;-61
2022/02/26 10:07:08;;;;;;;8.77;3.92;;;;;;;;;;5064417;28;20060;-59
2022/02/26 10:09:39;;;;;;;13.88;4.88;;;;;;;;;;5069111;28;20048;-63
2022/02/26 10:12:16;;;;;;;11.82;4.72;;;;;;;;;;5066165;28;20064;-57
2022/02/26 10:14:43;;;;;;;15.30;6.30;;;;;;;;;;5071404;28;20485;-56
2022/02/26 10:17:10;;;;;;;18.48;6.10;;;;;;;;;;5062450;28;20048;-58
2022/02/26 10:19:37;;;;;;;11.60;5.63;;;;;;;;;;5068063;28;20060;-57
2022/02/26 10:22:05;;;;;;;14.25;5.82;;;;;;;;;;5065003;28;20048;-57
2022/02/26 10:24:32;;;;;;;15.38;6.18;;;;;;;;;;5068632;28;20059;-59
2022/02/26 10:27:05;;;;;;;9.75;4.35;;;;;;;;;;5063196;28;20047;-59
2022/02/26 10:29:36;;;;;;;10.70;3.90;;;;;;;;;;5071215;28;20107;-62
2022/02/26 10:32:04;;;;;;;12.93;5.90;;;;;;;;;;5065142;28;20053;-60
2022/02/26 10:34:32;;;;;;;10.35;5.35;;;;;;;;;;5069080;28;20049;-56
2022/02/26 10:37:00;;;;;;;11.65;4.30;;;;;;;;;;5063866;28;20067;-56
2022/02/26 10:39:27;;;;;;;14.88;4.68;;;;;;;;;;5070851;28;20080;-59
2022/02/26 10:41:53;;;;;;;11.98;3.65;;;;;;;;;;5064061;28;20056;-59
2022/02/26 10:44:22;;;;;;;9.38;4.00;;;;;;;;;;5069993;28;20120;-57
2022/02/26 10:46:51;;;;;;;14.50;4.22;;;;;;;;;;5062179;28;20048;-53
2022/02/26 10:49:18;;;;;;;8.18;3.50;;;;;;;;;;5069295;28;20048;-56
2022/02/26 10:51:45;;;;;;;8.35;3.55;;;;;;;;;;5062548;28;20133;-58
2022/02/26 10:54:17;;;;;;;10.52;3.22;;;;;;;;;;5068936;28;20079;-55
2022/02/26 10:56:45;;;;;;;14.10;3.13;;;;;;;;;;5063941;28;20085;-57
2022/02/26 10:59:12;;;;;;;8.55;3.33;;;;;;;;;;5068485;28;20147;-60
2022/02/26 11:01:40;;;;;;;14.98;3.70;;;;;;;;;;5069120;28;20147;-57
2022/02/26 11:04:08;;;;;;;6.28;3.10;;;;;;;;;;5059511;28;20052;-58
2022/02/26 11:06:37;;;;;;;9.93;3.97;;;;;;;;;;5066200;28;20049;-59
2022/02/26 11:09:04;;;;;;;10.80;4.10;;;;;;;;;;5061323;28;20147;-61
2022/02/26 11:11:30;;;;;;;8.90;3.30;;;;;;;;;;5069760;28;20110;-56
2022/02/26 11:13:58;;;;;;;15.40;5.00;;;;;;;;;;5063191;28;20040;-59
2022/02/26 11:16:26;;;;;;;17.80;4.60;;;;;;;;;;5066479;28;20167;-62
2022/02/26 11:18:54;;;;;;;13.90;4.47;;;;;;;;;;5061524;28;20076;-57
2022/02/26 11:21:22;;;;;;;7.15;2.97;;;;;;;;;;5066530;28;20056;-61
2022/02/26 11:23:49;;;;;;;11.30;3.97;;;;;;;;;;5062498;28;20110;-63
2022/02/26 11:26:17;;;;;;;11.43;3.58;;;;;;;;;;5070421;28;20052;-58
2022/02/26 11:28:47;;;;;;;13.43;3.55;;;;;;;;;;5062603;28;20041;-62
2022/02/26 11:31:17;;;;;;;10.70;2.85;;;;;;;;;;5066987;28;20048;-63
2022/02/26 11:33:44;;;;;;;10.00;3.17;;;;;;;;;;5060155;28;20041;-59
2022/02/26 11:36:12;;;;;;;6.95;2.70;;;;;;;;;;5067908;28;20139;-60
2022/02/26 11:38:40;;;;;;;7.45;2.28;;;;;;;;;;5061570;28;20109;-62
2022/02/26 11:41:17;;;;;;;9.98;2.17;;;;;;;;;;5068372;28;20043;-59
2022/02/26 11:43:46;;;;;;;3.65;1.40;;;;;;;;;;5061968;28;20060;-60
2022/02/26 11:46:12;;;;;;;;;;;;;;;;;;5068168;28;20101;-60
2022/02/26 11:48:38;;;;;;;9.20;1.77;;;;;;;;;;5069352;28;19977;-64
2022/02/26 11:51:10;;;;;;;8.73;2.50;;;;;;;;;;5062634;28;20143;-60
2022/02/26 11:53:43;;;;;;;6.40;1.85;;;;;;;;;;5066957;28;20105;-59
2022/02/26 11:56:10;;;;;;;8.90;2.05;;;;;;;;;;5061776;28;20083;-62
2022/02/26 11:58:38;;;;;;;10.98;1.70;;;;;;;;;;5069943;28;20076;-62
2022/02/26 12:01:06;;;;;;;4.80;1.93;;;;;;;;;;5063554;28;20056;-65
2022/02/26 12:03:33;;;;;;;9.03;2.37;;;;;;;;;;5067968;28;20294;-58
2022/02/26 12:06:19;;;;;;;7.15;2.50;;;;;;;;;;5061289;28;20052;-56
2022/02/26 12:08:48;;;;;;;7.38;2.00;;;;;;;;;;5067877;28;20460;-55
2022/02/26 12:11:24;;;;;;;10.25;1.48;;;;;;;;;;5062028;28;20079;-57
2022/02/26 12:13:54;;;;;;;8.43;2.08;;;;;;;;;;5048276;28;20056;-60
2022/02/26 12:16:25;;;;;;;4.43;1.92;;;;;;;;;;5060131;28;20052;-57
2022/02/26 12:18:55;;;;;;;6.28;1.23;;;;;;;;;;5066384;28;20060;-60
2022/02/26 12:21:22;;;;;;;8.98;1.75;;;;;;;;;;5061261;28;20056;-54
2022/02/26 12:24:03;;;;;;;11.43;1.65;;;;;;;;;;5067468;28;20116;-58
2022/02/26 12:26:43;;;;;;;10.02;1.38;;;;;;;;;;5061574;28;20048;-61
2022/02/26 12:29:10;;;;;;;4.40;1.48;;;;;;;;;;5082595;28;20052;-61
2022/02/26 12:31:40;;;;;;;5.88;1.80;;;;;;;;;;5050024;28;20051;-61
2022/02/26 12:34:10;;;;;;;10.23;1.73;;;;;;;;;;5056450;28;20045;-61
2022/02/26 12:36:50;;;;;;;5.57;1.90;;;;;;;;;;5061566;28;20138;-61
2022/02/26 12:39:26;;;;;;;6.15;1.33;;;;;;;;;;5066652;28;20123;-61
2022/02/26 12:41:53;;;;;;;5.70;1.30;;;;;;;;;;5045148;28;20057;-60
2022/02/26 12:44:19;;;;;;;5.45;1.60;;;;;;;;;;5057519;28;20052;-58
2022/02/26 12:46:47;;;;;;;8.93;1.98;;;;;;;;;;5061620;28;20072;-56
2022/02/26 12:49:15;;;;;;;5.68;1.55;;;;;;;;;;5065036;28;20069;-58
2022/02/26 12:51:43;;;;;;;7.18;1.52;;;;;;;;;;5058593;28;20056;-59
2022/02/26 12:54:12;;;;;;;10.25;1.90;;;;;;;;;;5066277;28;20056;-62
2022/02/26 12:56:43;;;;;;;12.20;1.60;;;;;;;;;;5061194;28;20087;-63
2022/02/26 12:59:11;;;;;;;7.55;1.55;;;;;;;;;;5068953;28;20119;-62
2022/02/26 13:01:38;;;;;;;12.77;1.40;;;;;;;;;;5062098;28;20143;-60
2022/02/26 13:04:05;;;;;;;8.35;1.23;;;;;;;;;;5066374;28;20082;-65
2022/02/26 13:06:31;;;;;;;8.30;1.48;;;;;;;;;;5066884;28;20074;-64
2022/02/26 13:08:58;;;;;;;7.90;2.20;;;;;;;;;;5060315;28;20133;-61
2022/02/26 13:11:25;;;;;;;8.07;1.55;;;;;;;;;;5067426;28;20055;-60
2022/02/26 13:14:05;;;;;;;4.20;1.40;;;;;;;;;;5061480;28;20067;-61
2022/02/26 13:16:32;;;;;;;7.18;1.60;;;;;;;;;;5065283;28;20152;-63
2022/02/26 13:18:58;;;;;;;7.25;1.45;;;;;;;;;;5061571;28;20152;-62
2022/02/26 13:21:27;;;;;;;7.28;1.60;;;;;;;;;;5066450;28;20495;-61
2022/02/26 13:23:54;;;;;;;2.38;1.20;;;;;;;;;;5060402;28;20052;-58
2022/02/26 13:26:27;;;;;;;10.25;1.48;;;;;;;;;;5067120;28;20051;-62
2022/02/26 13:28:54;;;;;;;4.32;1.30;;;;;;;;;;5059801;28;20052;-57
2022/02/26 13:31:31;;;;;;;6.75;1.38;;;;;;;;;;5067281;28;20083;-56
2022/02/26 13:34:09;;;;;;;8.40;1.60;;;;;;;;;;5063168;28;20068;-59
2022/02/26 13:36:37;;;;;;;4.90;1.30;;;;;;;;;;5083393;28;20052;-59
2022/02/26 13:39:04;;;;;;;6.88;1.25;;;;;;;;;;5058595;28;20147;-57
2022/02/26 13:41:31;;;;;;;4.70;1.10;;;;;;;;;;5067282;28;20053;-59
2022/02/26 13:43:59;;;;;;;7.35;1.33;;;;;;;;;;5050466;28;20072;-61
2022/02/26 13:46:28;;;;;;;11.57;1.45;;;;;;;;;;5069257;28;20048;-60
2022/02/26 13:49:01;;;;;;;6.32;1.40;;;;;;;;;;5062006;28;20048;-55
2022/02/26 13:51:31;;;;;;;5.45;1.35;;;;;;;;;;5067962;28;20598;-61
2022/02/26 13:53:58;;;;;;;9.10;1.75;;;;;;;;;;5062330;28;20045;-60
2022/02/26 13:56:26;;;;;;;7.20;1.48;;;;;;;;;;5070968;28;20044;-62
2022/02/26 13:58:53;;;;;;;12.00;1.17;;;;;;;;;;5065689;28;20139;-58
2022/02/26 14:01:19;;;;;;;3.63;1.33;;;;;;;;;;5068144;28;20056;-57
2022/02/26 14:03:49;;;;;;;6.43;2.00;;;;;;;;;;5070300;28;20109;-63
2022/02/26 14:06:16;;;;;;;15.02;4.85;;;;;;;;;;5065279;28;20062;-63
2022/02/26 14:08:42;;;;;;;15.02;3.35;;;;;;;;;;5068074;28;20147;-61
2022/02/26 14:11:09;;;;;;;5.60;2.28;;;;;;;;;;5060827;28;20139;-59
2022/02/26 14:13:36;;;;;;;11.82;3.75;;;;;;;;;;5069429;28;20044;-64
2022/02/26 14:16:05;;;;;;;14.93;4.00;;;;;;;;;;5066379;28;20092;-65
2022/02/26 14:18:33;;;;;;;13.20;3.72;;;;;;;;;;5069986;28;20059;-59
2022/02/26 14:21:01;;;;;;;12.57;4.13;;;;;;;;;;5064209;28;20060;-59
2022/02/26 14:23:28;;;;;;;9.30;2.47;;;;;;;;;;5068020;28;20064;-58
2022/02/26 14:25:57;;;;;;;17.67;5.25;;;;;;;;;;5063422;28;20497;-60
2022/02/26 14:28:24;;;;;;;9.35;3.08;;;;;;;;;;5070888;28;20052;-57
2022/02/26 14:30:55;;;;;;;15.55;3.33;;;;;;;;;;5064069;28;20057;-59
2022/02/26 14:33:22;;;;;;;15.55;4.03;;;;;;;;;;5070732;28;20139;-60
2022/02/26 14:35:52;;;;;;;15.15;4.28;;;;;;;;;;5064785;28;20044;-60
2022/02/26 14:38:20;;;;;;;14.73;4.03;;;;;;;;;;5070387;28;20486;-61
2022/02/26 14:40:47;;;;;;;17.77;4.53;;;;;;;;;;5062618;28;20049;-58